Time;durP1;ratioP1;P1;durP2;ratioP2;P2;SDS_P1;SDS_P2;PMS_P1;PMS_P2;Temp;Humidity;BMP_temperature;BMP_pressure;BME280_temperature;BME280_humidity;BME280_pressure;Samples;Min_cycle;Max_cycle;Signal;HPM_P1;HPM_P2
2023/03/07 00:00:40;;;;;;;2.17;0.55;;;14.30;53.00;;;;;;6214478;23;20013;-72
2023/03/07 00:03:06;;;;;;;1.77;0.50;;;14.30;52.90;;;;;;6213895;23;20009;-73
2023/03/07 00:05:32;;;;;;;0.90;0.68;;;14.30;52.90;;;;;;6214483;23;20000;-72
2023/03/07 00:07:58;;;;;;;1.48;0.43;;;14.30;53.00;;;;;;6214341;23;20031;-73
2023/03/07 00:10:25;;;;;;;1.38;0.50;;;14.30;53.00;;;;;;6216086;23;20431;-73
2023/03/07 00:12:51;;;;;;;0.70;0.30;;;14.30;52.90;;;;;;6216253;23;20009;-72
2023/03/07 00:15:17;;;;;;;1.17;0.47;;;14.30;52.90;;;;;;6215690;23;19993;-72
2023/03/07 00:17:43;;;;;;;1.50;0.65;;;14.30;53.00;;;;;;6216133;23;20000;-72
2023/03/07 00:20:13;;;;;;;1.17;0.30;;;14.30;53.10;;;;;;6215611;23;20498;-72
2023/03/07 00:22:38;;;;;;;0.63;0.30;;;14.30;53.00;;;;;;6225905;23;19993;-72
2023/03/07 00:25:05;;;;;;;1.17;0.30;;;14.30;53.00;;;;;;6215993;23;20007;-73
2023/03/07 00:27:32;;;;;;;1.65;0.50;;;14.40;53.00;;;;;;6216022;23;19996;-72
2023/03/07 00:29:59;;;;;;;1.10;0.38;;;14.30;53.00;;;;;;6214291;23;19997;-72
2023/03/07 00:32:26;;;;;;;1.35;0.47;;;14.20;53.00;;;;;;6215860;23;20008;-73
2023/03/07 00:34:53;;;;;;;0.65;0.20;;;14.30;53.00;;;;;;6215578;23;19997;-72
2023/03/07 00:37:19;;;;;;;1.02;0.43;;;14.30;53.70;;;;;;6215560;23;20028;-72
2023/03/07 00:39:46;;;;;;;1.02;0.50;;;14.30;53.10;;;;;;6215548;23;20497;-72
2023/03/07 00:42:12;;;;;;;1.50;0.50;;;14.20;53.00;;;;;;6215452;23;20071;-73
2023/03/07 00:44:38;;;;;;;1.58;0.45;;;14.30;53.00;;;;;;6215860;23;20024;-72
2023/03/07 00:47:04;;;;;;;1.40;0.70;;;14.20;53.10;;;;;;6215845;23;19997;-72
2023/03/07 00:49:30;;;;;;;2.70;0.60;;;14.20;53.00;;;;;;6215402;23;20070;-72
2023/03/07 00:51:56;;;;;;;2.70;0.50;;;14.20;53.00;;;;;;6215337;23;20452;-72
2023/03/07 00:54:22;;;;;;;1.80;0.47;;;14.20;53.00;;;;;;6215665;23;20001;-73
2023/03/07 00:56:48;;;;;;;0.77;0.35;;;14.20;53.00;;;;;;6214293;23;20000;-72
2023/03/07 00:59:14;;;;;;;0.93;0.45;;;14.20;53.10;;;;;;6215305;23;20079;-73
2023/03/07 01:01:41;;;;;;;0.88;0.30;;;14.20;53.80;;;;;;6189363;23;20040;-73
2023/03/07 01:04:07;;;;;;;1.13;0.40;;;14.20;53.30;;;;;;6188736;23;20013;-72
2023/03/07 01:06:34;;;;;;;0.80;0.32;;;14.20;53.10;;;;;;6189269;23;20001;-73
2023/03/07 01:09:03;;;;;;;1.17;0.30;;;14.20;53.20;;;;;;6189510;23;20514;-75
2023/03/07 01:11:30;;;;;;;1.35;0.35;;;14.10;53.10;;;;;;6189587;23;20028;-75
2023/03/07 01:13:58;;;;;;;2.13;0.38;;;14.20;53.30;;;;;;6189529;23;20080;-75
2023/03/07 01:16:30;;;;;;;1.65;0.30;;;14.10;53.20;;;;;;6189705;23;20005;-75
2023/03/07 01:18:59;;;;;;;1.13;0.60;;;14.10;53.20;;;;;;6190478;23;20328;-75
2023/03/07 01:21:25;;;;;;;2.90;0.47;;;14.10;53.10;;;;;;6199186;23;20108;-75
2023/03/07 01:23:52;;;;;;;1.95;0.30;;;14.10;53.20;;;;;;6223997;23;20059;-75
2023/03/07 01:26:27;;;;;;;1.20;0.40;;;14.10;53.20;;;;;;6198999;23;20024;-75
2023/03/07 01:28:56;;;;;;;1.30;0.38;;;14.10;53.20;;;;;;6200665;23;20019;-76
2023/03/07 01:31:23;;;;;;;0.52;0.28;;;14.10;53.20;;;;;;6199082;23;20001;-75
2023/03/07 01:33:50;;;;;;;1.83;0.60;;;14.10;53.20;;;;;;6198641;23;20473;-75
2023/03/07 01:36:18;;;;;;;1.02;0.40;;;14.10;52.70;;;;;;6199171;23;19997;-75
2023/03/07 01:38:46;;;;;;;0.85;0.50;;;14.00;53.10;;;;;;6225445;23;19996;-75
2023/03/07 01:41:12;;;;;;;1.20;0.40;;;14.10;53.90;;;;;;6199401;23;20239;-75
2023/03/07 01:43:38;;;;;;;1.55;0.35;;;14.10;53.30;;;;;;6199127;23;20004;-75
2023/03/07 01:46:16;;;;;;;1.30;0.57;;;14.10;53.30;;;;;;6199009;23;19996;-75
2023/03/07 01:48:49;;;;;;;0.88;0.50;;;14.10;53.30;;;;;;6225129;23;20431;-75
2023/03/07 01:51:15;;;;;;;2.55;0.40;;;14.10;53.30;;;;;;6199365;23;20066;-75
2023/03/07 01:53:41;;;;;;;2.15;0.50;;;14.10;53.40;;;;;;6198504;23;20118;-75
2023/03/07 01:56:08;;;;;;;2.05;0.50;;;14.10;53.40;;;;;;6198804;23;20454;-75
2023/03/07 01:58:36;;;;;;;1.33;0.40;;;14.10;53.90;;;;;;6198597;23;20065;-75
2023/03/07 02:01:07;;;;;;;0.60;0.50;;;14.10;53.40;;;;;;6189420;23;20008;-75
2023/03/07 02:03:50;;;;;;;1.25;0.60;;;14.10;53.30;;;;;;6189495;23;20017;-75
2023/03/07 02:06:17;;;;;;;0.65;0.50;;;14.10;53.90;;;;;;6215907;23;20000;-75
2023/03/07 02:08:47;;;;;;;1.15;0.57;;;14.00;53.30;;;;;;6213776;23;20009;-75
2023/03/07 02:11:14;;;;;;;1.52;0.60;;;14.00;53.40;;;;;;6189752;23;19997;-75
2023/03/07 02:13:40;;;;;;;2.38;1.20;;;14.00;53.30;;;;;;6189105;23;20019;-75
2023/03/07 02:16:07;;;;;;;2.05;0.63;;;14.00;53.30;;;;;;6189135;23;20024;-76
2023/03/07 02:18:39;;;;;;;1.67;0.55;;;14.00;53.40;;;;;;6189242;23;20004;-75
2023/03/07 02:21:20;;;;;;;2.85;1.08;;;14.00;53.40;;;;;;6189814;23;20001;-75
2023/03/07 02:23:56;;;;;;;2.15;0.70;;;14.00;53.40;;;;;;6213489;23;20011;-75
2023/03/07 02:26:27;;;;;;;1.67;0.63;;;14.00;53.40;;;;;;6214790;23;20043;-75
2023/03/07 02:28:55;;;;;;;1.67;0.82;;;14.00;53.30;;;;;;6215164;23;20000;-75
2023/03/07 02:31:21;;;;;;;1.00;0.70;;;14.00;53.40;;;;;;6188549;23;20011;-75
2023/03/07 02:33:48;;;;;;;2.05;0.93;;;14.00;53.40;;;;;;6213148;23;20012;-75
2023/03/07 02:36:28;;;;;;;2.85;0.68;;;14.00;53.40;;;;;;6213457;23;20012;-75
2023/03/07 02:38:56;;;;;;;1.52;0.52;;;14.00;53.40;;;;;;6189630;23;20317;-75
2023/03/07 02:41:30;;;;;;;1.60;0.85;;;13.90;53.30;;;;;;6215178;23;19997;-75
2023/03/07 02:43:56;;;;;;;2.88;0.93;;;13.90;53.30;;;;;;6215164;23;20074;-75
2023/03/07 02:46:22;;;;;;;4.78;0.68;;;13.90;53.20;;;;;;6215143;23;20048;-75
2023/03/07 02:48:48;;;;;;;1.40;1.00;;;13.90;53.30;;;;;;6214986;23;20001;-75
2023/03/07 02:51:14;;;;;;;1.92;0.60;;;13.90;53.20;;;;;;6215035;23;20075;-76
2023/03/07 02:53:40;;;;;;;2.33;0.82;;;13.90;53.20;;;;;;6214944;23;20004;-76
2023/03/07 02:56:07;;;;;;;1.65;0.73;;;13.90;53.30;;;;;;6215053;23;19996;-75
2023/03/07 02:58:33;;;;;;;1.25;0.60;;;13.90;53.30;;;;;;6224769;23;19996;-75
2023/03/07 03:00:59;;;;;;;1.27;0.50;;;13.90;53.30;;;;;;6224616;23;20007;-75
2023/03/07 03:03:25;;;;;;;1.23;0.60;;;13.90;53.30;;;;;;6214243;23;20023;-76
2023/03/07 03:05:51;;;;;;;2.50;0.75;;;13.90;53.30;;;;;;6214804;23;20373;-75
2023/03/07 03:08:17;;;;;;;2.50;0.82;;;13.90;53.40;;;;;;6214786;23;20098;-75
2023/03/07 03:10:43;;;;;;;4.78;0.85;;;13.90;53.30;;;;;;6214932;23;19997;-75
2023/03/07 03:13:08;;;;;;;2.42;0.70;;;13.90;54.00;;;;;;6224796;23;20492;-76
2023/03/07 03:15:34;;;;;;;2.00;0.60;;;13.90;54.00;;;;;;6224970;23;19996;-75
2023/03/07 03:17:59;;;;;;;1.65;0.60;;;13.80;53.20;;;;;;6224814;23;19996;-76
2023/03/07 03:20:26;;;;;;;2.08;0.60;;;13.90;53.40;;;;;;6224551;23;20043;-75
2023/03/07 03:22:52;;;;;;;1.45;0.43;;;13.90;53.30;;;;;;6224687;23;20054;-76
2023/03/07 03:25:21;;;;;;;1.75;0.40;;;13.80;53.30;;;;;;6215038;23;19992;-76
2023/03/07 03:27:46;;;;;;;1.42;0.30;;;13.80;53.30;;;;;;6224779;23;20004;-76
2023/03/07 03:30:13;;;;;;;0.70;0.40;;;13.80;53.30;;;;;;6214849;23;19997;-75
2023/03/07 03:32:39;;;;;;;1.52;0.55;;;13.90;53.30;;;;;;6214088;23;20443;-75
2023/03/07 03:35:06;;;;;;;1.10;0.57;;;13.80;53.30;;;;;;6214926;23;19996;-75
2023/03/07 03:37:33;;;;;;;0.73;0.28;;;13.80;53.30;;;;;;6213564;23;19997;-75
2023/03/07 03:39:59;;;;;;;0.68;0.38;;;13.90;53.40;;;;;;6214367;23;20427;-75
2023/03/07 03:42:25;;;;;;;0.60;0.40;;;13.80;53.30;;;;;;6215199;23;20032;-75
2023/03/07 03:44:51;;;;;;;2.47;0.40;;;13.80;53.30;;;;;;6215058;23;20436;-75
2023/03/07 03:47:17;;;;;;;1.35;0.30;;;13.90;53.30;;;;;;6216345;23;20011;-75
2023/03/07 03:49:43;;;;;;;0.52;0.32;;;13.80;53.30;;;;;;6216830;23;19997;-75
2023/03/07 03:52:09;;;;;;;1.27;0.50;;;13.80;53.40;;;;;;6216174;23;20335;-75
2023/03/07 03:54:35;;;;;;;2.15;0.45;;;13.80;53.40;;;;;;6216583;23;20004;-75
2023/03/07 03:57:02;;;;;;;0.60;0.40;;;13.80;53.40;;;;;;6216809;23;20370;-75
2023/03/07 03:59:28;;;;;;;0.85;0.25;;;13.80;53.30;;;;;;6216563;23;20001;-75
2023/03/07 04:01:54;;;;;;;0.70;0.30;;;13.80;53.30;;;;;;6216466;23;19996;-76
2023/03/07 04:04:21;;;;;;;1.23;0.30;;;13.80;53.30;;;;;;6216403;23;19996;-75
2023/03/07 04:06:47;;;;;;;0.70;0.38;;;13.80;53.30;;;;;;6215092;23;20000;-75
2023/03/07 04:09:14;;;;;;;2.55;0.50;;;13.80;53.30;;;;;;6216643;23;20007;-75
2023/03/07 04:11:40;;;;;;;1.63;0.50;;;13.80;53.30;;;;;;6216765;23;19992;-75
2023/03/07 04:14:06;;;;;;;1.48;0.93;;;13.80;53.40;;;;;;6216348;23;20021;-75
2023/03/07 04:16:32;;;;;;;0.52;0.35;;;13.80;53.30;;;;;;6216691;23;20008;-75
2023/03/07 04:18:58;;;;;;;0.57;0.30;;;13.80;53.30;;;;;;6216113;23;20438;-75
2023/03/07 04:21:24;;;;;;;1.15;0.45;;;13.80;53.30;;;;;;6216524;23;20360;-75
2023/03/07 04:23:54;;;;;;;0.50;0.30;;;13.80;53.30;;;;;;6216462;23;19996;-75
2023/03/07 04:26:21;;;;;;;0.60;0.30;;;13.70;53.30;;;;;;6216422;23;20000;-75
2023/03/07 04:28:50;;;;;;;1.17;0.30;;;13.70;53.30;;;;;;6216691;23;20020;-75
2023/03/07 04:31:18;;;;;;;1.35;0.50;;;13.80;53.30;;;;;;6216317;23;19993;-75
2023/03/07 04:33:45;;;;;;;1.45;0.38;;;13.80;53.40;;;;;;6216314;23;20035;-75
2023/03/07 04:36:11;;;;;;;1.67;0.35;;;13.80;53.40;;;;;;6216305;23;19996;-75
2023/03/07 04:38:39;;;;;;;1.00;0.40;;;13.70;53.40;;;;;;6216228;23;20043;-75
2023/03/07 04:41:06;;;;;;;0.90;0.30;;;13.70;53.40;;;;;;6216289;23;20000;-75
2023/03/07 04:43:33;;;;;;;2.67;0.43;;;13.80;54.10;;;;;;6215723;23;20448;-75
2023/03/07 04:45:59;;;;;;;1.08;0.40;;;13.80;54.10;;;;;;6216311;23;19997;-75
2023/03/07 04:48:25;;;;;;;1.25;0.50;;;13.80;53.50;;;;;;6216184;23;20000;-75
2023/03/07 04:50:51;;;;;;;1.08;0.30;;;13.70;53.50;;;;;;6226012;23;20067;-75
2023/03/07 04:53:21;;;;;;;0.47;0.30;;;13.80;53.60;;;;;;6215856;23;20385;-74
2023/03/07 04:55:47;;;;;;;2.00;0.45;;;13.70;53.40;;;;;;6215752;23;20072;-75
2023/03/07 04:58:13;;;;;;;1.00;0.63;;;13.70;53.50;;;;;;6215389;23;19997;-74
2023/03/07 05:00:44;;;;;;;0.63;0.40;;;13.80;53.60;;;;;;6215594;23;20491;-74
2023/03/07 05:03:11;;;;;;;0.68;0.20;;;13.80;53.60;;;;;;6215470;23;20043;-74
2023/03/07 05:05:38;;;;;;;1.15;0.30;;;13.80;53.60;;;;;;6215494;23;20080;-76
2023/03/07 05:08:05;;;;;;;2.25;0.88;;;13.80;53.60;;;;;;6215902;23;20023;-73
2023/03/07 05:10:31;;;;;;;0.85;0.40;;;13.80;53.60;;;;;;6225426;23;20004;-74
2023/03/07 05:12:57;;;;;;;0.60;0.30;;;13.80;53.70;;;;;;6225406;23;20009;-74
2023/03/07 05:15:22;;;;;;;0.40;0.40;;;13.80;53.60;;;;;;6223978;23;20432;-75
2023/03/07 05:17:48;;;;;;;0.85;0.60;;;13.80;54.30;;;;;;6225594;23;20050;-75
2023/03/07 05:20:14;;;;;;;2.08;0.70;;;13.80;53.70;;;;;;6215762;23;19996;-74
2023/03/07 05:22:39;;;;;;;1.00;0.73;;;13.80;53.80;;;;;;6225561;23;20378;-74
2023/03/07 05:25:05;;;;;;;1.45;1.25;;;13.70;53.80;;;;;;6225645;23;19997;-74
2023/03/07 05:27:32;;;;;;;1.77;1.67;;;13.80;54.00;;;;;;6225435;23;19997;-75
2023/03/07 05:29:58;;;;;;;1.80;1.70;;;13.70;53.90;;;;;;6225533;23;19997;-74
2023/03/07 05:32:24;;;;;;;2.67;2.47;;;13.80;53.90;;;;;;6225294;23;20335;-74
2023/03/07 05:34:49;;;;;;;3.15;3.00;;;13.80;54.00;;;;;;6225415;23;20001;-75
2023/03/07 05:37:15;;;;;;;4.30;4.00;;;13.70;54.10;;;;;;6225407;23;20324;-74
2023/03/07 05:39:41;;;;;;;5.05;4.65;;;13.80;54.10;;;;;;6223827;23;19996;-74
2023/03/07 05:42:06;;;;;;;5.53;5.07;;;13.80;54.10;;;;;;6225480;23;20028;-75
2023/03/07 05:44:32;;;;;;;6.20;5.70;;;13.80;54.10;;;;;;6225423;23;20000;-75
2023/03/07 05:46:58;;;;;;;7.30;6.70;;;13.70;54.10;;;;;;6215211;23;20024;-74
2023/03/07 05:49:24;;;;;;;7.35;6.93;;;13.80;54.30;;;;;;6189204;23;20021;-74
2023/03/07 05:51:50;;;;;;;8.02;7.43;;;13.80;54.20;;;;;;6189216;23;20001;-74
2023/03/07 05:54:17;;;;;;;8.10;7.60;;;13.70;54.20;;;;;;6188937;23;20336;-74
2023/03/07 05:56:43;;;;;;;9.13;8.52;;;13.80;54.30;;;;;;6189050;23;20004;-74
2023/03/07 05:59:14;;;;;;;9.80;9.10;;;13.80;54.20;;;;;;6213656;23;20020;-74
2023/03/07 06:01:41;;;;;;;10.65;9.80;;;13.80;54.20;;;;;;6190039;23;20051;-74
2023/03/07 06:04:07;;;;;;;9.50;8.80;;;13.80;54.30;;;;;;6188592;23;20036;-74
2023/03/07 06:06:34;;;;;;;9.85;9.07;;;13.70;54.30;;;;;;6188645;23;20001;-74
2023/03/07 06:09:00;;;;;;;9.88;9.18;;;13.70;54.20;;;;;;6213857;23;20017;-74
2023/03/07 06:11:26;;;;;;;9.60;8.90;;;13.70;54.40;;;;;;6189022;23;20008;-74
2023/03/07 06:13:54;;;;;;;9.95;9.15;;;13.70;54.20;;;;;;6188438;23;20008;-74
2023/03/07 06:16:21;;;;;;;9.25;8.65;;;13.70;54.30;;;;;;6189644;23;19997;-76
2023/03/07 06:18:47;;;;;;;9.18;8.48;;;13.70;54.30;;;;;;6189587;23;20083;-75
2023/03/07 06:21:15;;;;;;;8.50;7.75;;;13.70;54.30;;;;;;6189015;23;20007;-76
2023/03/07 06:23:42;;;;;;;8.55;7.78;;;13.70;54.30;;;;;;6189418;23;20023;-76
2023/03/07 06:26:09;;;;;;;10.25;9.20;;;13.70;54.20;;;;;;6214111;23;20012;-78
2023/03/07 06:28:35;;;;;;;8.65;7.88;;;13.70;54.30;;;;;;6189216;23;20028;-76
2023/03/07 06:31:08;;;;;;;8.80;7.90;;;13.70;54.40;;;;;;6215441;23;20012;-76
2023/03/07 06:33:34;;;;;;;12.05;7.65;;;13.70;54.30;;;;;;6215486;23;20066;-76
2023/03/07 06:36:05;;;;;;;7.47;6.88;;;13.70;54.40;;;;;;6214932;23;19992;-75
2023/03/07 06:38:31;;;;;;;7.15;6.53;;;13.70;54.30;;;;;;6215608;23;20012;-77
2023/03/07 06:40:57;;;;;;;7.45;6.32;;;13.70;54.20;;;;;;6215453;23;20332;-77
2023/03/07 06:43:23;;;;;;;6.10;5.50;;;13.70;54.90;;;;;;6214932;23;20373;-77
2023/03/07 06:45:49;;;;;;;5.80;5.30;;;13.70;54.20;;;;;;6215018;23;19997;-78
2023/03/07 06:48:16;;;;;;;5.05;4.72;;;13.20;54.10;;;;;;6213917;23;20058;-75
2023/03/07 06:50:43;;;;;;;5.03;4.70;;;13.70;54.20;;;;;;6215293;23;19993;-75
2023/03/07 06:53:09;;;;;;;4.75;4.32;;;13.70;54.30;;;;;;6215166;23;20012;-76
2023/03/07 06:55:35;;;;;;;3.83;3.53;;;13.70;54.20;;;;;;6213560;23;20305;-75
2023/03/07 06:58:01;;;;;;;3.88;3.58;;;13.70;54.30;;;;;;6214933;23;20325;-75
2023/03/07 07:00:27;;;;;;;3.75;3.45;;;13.70;54.30;;;;;;6214553;23;19992;-75
2023/03/07 07:02:53;;;;;;;3.38;3.03;;;13.70;54.40;;;;;;6214439;23;20046;-75
2023/03/07 07:05:20;;;;;;;3.20;3.00;;;13.70;54.40;;;;;;6214979;23;20008;-75
2023/03/07 07:07:46;;;;;;;3.10;2.80;;;13.70;54.50;;;;;;6215003;23;20055;-74
2023/03/07 07:10:12;;;;;;;2.53;2.33;;;13.70;54.40;;;;;;6214953;23;19996;-75
2023/03/07 07:12:38;;;;;;;2.97;2.70;;;13.70;54.40;;;;;;6224610;23;20004;-74
2023/03/07 07:15:04;;;;;;;2.20;2.10;;;13.70;54.50;;;;;;6224777;23;20000;-75
2023/03/07 07:17:37;;;;;;;2.38;2.28;;;13.70;54.50;;;;;;6225662;23;20004;-74
2023/03/07 07:20:05;;;;;;;2.75;2.28;;;13.80;54.50;;;;;;6218437;23;20001;-74
2023/03/07 07:22:31;;;;;;;3.17;2.08;;;13.70;54.40;;;;;;6218152;23;20328;-74
2023/03/07 07:24:57;;;;;;;1.90;1.80;;;13.70;54.50;;;;;;6217781;23;20440;-74
2023/03/07 07:27:24;;;;;;;3.00;1.75;;;13.70;54.50;;;;;;6218200;23;20420;-74
2023/03/07 07:29:51;;;;;;;1.85;1.75;;;13.70;54.50;;;;;;6218215;23;19992;-75
2023/03/07 07:32:17;;;;;;;4.53;1.70;;;13.70;54.40;;;;;;6217843;23;20021;-74
2023/03/07 07:34:43;;;;;;;1.40;1.30;;;13.70;54.50;;;;;;6218125;23;20008;-74
2023/03/07 07:37:09;;;;;;;1.55;1.45;;;13.80;54.50;;;;;;6218188;23;19997;-74
2023/03/07 07:39:34;;;;;;;2.22;1.10;;;13.80;54.50;;;;;;6227973;23;19996;-75
2023/03/07 07:42:00;;;;;;;1.40;1.30;;;13.80;54.50;;;;;;6227811;23;20021;-75
2023/03/07 07:44:29;;;;;;;2.13;1.50;;;13.80;54.50;;;;;;6227825;23;20441;-75
2023/03/07 07:46:55;;;;;;;1.77;1.30;;;13.70;54.50;;;;;;6228144;23;20363;-75
2023/03/07 07:49:21;;;;;;;0.90;0.90;;;13.70;54.50;;;;;;6227747;23;19992;-75
2023/03/07 07:51:46;;;;;;;1.95;0.90;;;13.80;54.60;;;;;;6227896;23;19996;-75
2023/03/07 07:54:12;;;;;;;2.92;1.13;;;13.80;54.60;;;;;;6227699;23;20332;-74
2023/03/07 07:56:38;;;;;;;2.58;1.00;;;13.80;54.70;;;;;;6227766;23;20115;-75
2023/03/07 07:59:03;;;;;;;2.60;0.80;;;13.80;54.60;;;;;;6227803;23;19997;-74
2023/03/07 08:01:29;;;;;;;2.03;0.80;;;13.80;63.70;;;;;;6227740;23;20007;-74
2023/03/07 08:03:54;;;;;;;1.75;0.57;;;13.80;54.70;;;;;;6226152;23;20087;-74
2023/03/07 08:06:22;;;;;;;1.75;0.75;;;13.80;54.60;;;;;;6217626;23;20003;-76
2023/03/07 08:08:48;;;;;;;0.55;0.55;;;13.80;54.60;;;;;;6227745;23;19997;-74
2023/03/07 08:11:15;;;;;;;1.23;1.10;;;13.80;54.50;;;;;;6227753;23;19997;-75
2023/03/07 08:13:41;;;;;;;3.28;0.63;;;13.80;54.40;;;;;;6227629;23;20024;-75
2023/03/07 08:16:10;;;;;;;1.23;0.85;;;13.80;54.50;;;;;;6227759;23;20416;-74
2023/03/07 08:18:36;;;;;;;0.88;0.50;;;13.80;54.40;;;;;;6222064;23;20008;-74
2023/03/07 08:21:02;;;;;;;2.40;0.60;;;13.80;54.40;;;;;;6227729;23;20000;-74
2023/03/07 08:23:27;;;;;;;1.27;0.77;;;13.80;54.40;;;;;;6227665;23;19997;-74
2023/03/07 08:25:53;;;;;;;0.95;0.55;;;13.90;54.40;;;;;;6226310;23;19993;-74
2023/03/07 08:28:18;;;;;;;1.38;0.60;;;13.80;54.30;;;;;;6227667;23;20011;-74
2023/03/07 08:30:44;;;;;;;1.10;0.47;;;13.90;54.40;;;;;;6225545;23;20028;-71
2023/03/07 08:33:10;;;;;;;0.63;0.63;;;13.90;54.40;;;;;;6216037;23;20093;-75
2023/03/07 08:35:38;;;;;;;0.55;0.30;;;13.90;55.50;;;;;;6215555;23;19997;-71
2023/03/07 08:38:04;;;;;;;0.70;0.40;;;13.90;54.30;;;;;;6215457;23;20340;-71
2023/03/07 08:40:30;;;;;;;1.27;0.50;;;13.90;54.40;;;;;;6216218;23;19993;-72
2023/03/07 08:43:00;;;;;;;1.20;0.73;;;13.90;54.30;;;;;;6215720;23;20428;-72
2023/03/07 08:45:25;;;;;;;0.80;0.40;;;13.90;54.40;;;;;;6225733;23;20439;-72
2023/03/07 08:47:53;;;;;;;4.25;0.43;;;13.90;55.00;;;;;;6216204;23;20328;-71
2023/03/07 08:50:28;;;;;;;0.40;0.30;;;13.90;55.00;;;;;;6215756;23;20367;-71
2023/03/07 08:52:56;;;;;;;0.30;0.30;;;13.90;54.90;;;;;;6215913;23;20062;-71
2023/03/07 08:55:22;;;;;;;1.45;0.50;;;13.90;54.20;;;;;;6215846;23;19997;-71
2023/03/07 08:57:48;;;;;;;1.67;0.40;;;13.90;54.30;;;;;;6215931;23;20467;-71
2023/03/07 09:00:15;;;;;;;0.90;0.63;;;13.90;54.40;;;;;;6216049;23;20004;-71
2023/03/07 09:02:41;;;;;;;0.75;0.50;;;13.90;54.30;;;;;;6215474;23;20040;-70
2023/03/07 09:05:07;;;;;;;0.57;0.57;;;13.90;54.30;;;;;;6215885;23;19997;-69
2023/03/07 09:07:33;;;;;;;1.00;0.43;;;13.90;54.30;;;;;;6215474;23;20003;-70
2023/03/07 09:09:59;;;;;;;0.30;0.20;;;13.90;54.50;;;;;;6215905;23;20009;-71
2023/03/07 09:12:25;;;;;;;0.57;0.32;;;13.90;54.60;;;;;;6216082;23;20076;-73
2023/03/07 09:14:54;;;;;;;1.95;0.40;;;13.90;54.50;;;;;;6217275;23;20004;-70
2023/03/07 09:17:21;;;;;;;0.40;0.30;;;13.90;54.50;;;;;;6189422;23;20127;-72
2023/03/07 09:19:48;;;;;;;0.98;0.50;;;13.90;54.60;;;;;;6189321;23;20004;-69
2023/03/07 09:22:14;;;;;;;1.10;0.43;;;14.00;54.50;;;;;;6215611;23;19996;-70
2023/03/07 09:24:40;;;;;;;1.17;0.45;;;14.70;54.90;;;;;;6215307;23;20054;-69
2023/03/07 09:27:06;;;;;;;0.43;0.40;;;14.00;54.60;;;;;;6215314;23;20389;-71
2023/03/07 09:29:32;;;;;;;1.90;0.52;;;14.00;54.60;;;;;;6215126;23;20011;-69
2023/03/07 09:31:58;;;;;;;0.43;0.30;;;;;;;;;;6215665;23;20079;-69
2023/03/07 09:34:24;;;;;;;0.40;0.40;;;14.00;54.00;;;;;;6215444;23;20091;-69
2023/03/07 09:36:51;;;;;;;1.63;0.50;;;14.00;54.50;;;;;;6225308;23;20000;-70
2023/03/07 09:39:17;;;;;;;0.60;0.60;;;14.00;54.40;;;;;;6215608;23;20366;-69
2023/03/07 09:42:04;;;;;;;0.50;0.50;;;14.00;54.40;;;;;;6215499;23;20003;-69
2023/03/07 09:44:39;;;;;;;0.90;0.52;;;14.00;54.50;;;;;;6215140;23;19992;-69
2023/03/07 09:47:38;;;;;;;0.30;0.25;;;14.00;54.50;;;;;;6215450;23;20000;-69
2023/03/07 09:50:15;;;;;;;0.43;0.40;;;14.10;54.60;;;;;;6215495;23;20001;-69
2023/03/07 09:52:42;;;;;;;0.40;0.38;;;14.10;54.00;;;;;;6214870;23;20012;-70
2023/03/07 09:55:14;;;;;;;0.50;0.40;;;14.00;54.50;;;;;;6215373;23;20004;-69
2023/03/07 09:57:50;;;;;;;0.77;0.50;;;14.10;54.60;;;;;;6215362;23;20000;-70
2023/03/07 10:00:25;;;;;;;0.40;0.30;;;14.10;54.50;;;;;;6215497;23;19997;-70
2023/03/07 10:02:59;;;;;;;2.58;0.50;;;14.10;54.50;;;;;;6214966;23;20009;-70
2023/03/07 10:05:37;;;;;;;0.60;0.30;;;14.10;54.50;;;;;;6215331;23;20000;-71
2023/03/07 10:08:04;;;;;;;1.50;0.40;;;14.10;54.60;;;;;;6215253;23;20030;-71
2023/03/07 10:10:38;;;;;;;0.75;0.40;;;14.30;54.60;;;;;;6214847;23;20072;-71
2023/03/07 10:13:11;;;;;;;1.02;0.30;;;14.10;54.70;;;;;;6215289;23;20008;-70
2023/03/07 10:15:47;;;;;;;0.38;0.30;;;14.10;54.50;;;;;;6215189;23;20001;-70
2023/03/07 10:18:13;;;;;;;1.00;0.30;;;14.20;54.50;;;;;;6215258;23;20003;-71
2023/03/07 10:20:55;;;;;;;0.98;0.40;;;14.20;54.50;;;;;;6215165;23;20005;-70
2023/03/07 10:23:24;;;;;;;0.35;0.30;;;14.20;54.40;;;;;;6214815;23;20024;-71
2023/03/07 10:26:20;;;;;;;1.10;0.40;;;14.20;54.50;;;;;;6224718;23;20000;-70
2023/03/07 10:28:47;;;;;;;0.60;0.32;;;14.20;54.40;;;;;;6201253;23;19996;-70
2023/03/07 10:31:35;;;;;;;1.05;0.45;;;14.20;54.50;;;;;;6215445;23;20028;-70
2023/03/07 10:34:15;;;;;;;2.70;0.85;;;14.20;54.40;;;;;;6215047;23;20012;-70
2023/03/07 10:36:45;;;;;;;1.80;0.63;;;14.20;54.30;;;;;;6215072;23;20020;-71
2023/03/07 10:39:17;;;;;;;1.40;0.60;;;14.20;54.40;;;;;;6215212;23;20040;-70
2023/03/07 10:41:43;;;;;;;2.67;0.30;;;14.30;54.50;;;;;;6214941;23;20028;-70
2023/03/07 10:44:14;;;;;;;0.40;0.40;;;14.20;54.40;;;;;;6215343;23;20063;-70
2023/03/07 10:46:41;;;;;;;0.32;0.30;;;14.20;54.30;;;;;;6214620;23;20016;-70
2023/03/07 10:49:15;;;;;;;2.38;0.40;;;14.30;54.40;;;;;;6214930;23;20039;-71
2023/03/07 10:51:50;;;;;;;0.77;0.30;;;14.30;54.40;;;;;;6214948;23;20001;-70
2023/03/07 10:54:21;;;;;;;0.60;0.40;;;14.30;54.30;;;;;;6214829;23;20080;-70
2023/03/07 10:57:17;;;;;;;0.88;0.40;;;14.30;54.30;;;;;;6214710;23;20483;-70
2023/03/07 10:59:48;;;;;;;0.50;0.50;;;14.20;54.20;;;;;;6201803;23;20442;-69
2023/03/07 11:02:23;;;;;;;0.73;0.50;;;14.30;54.30;;;;;;6214517;23;20016;-70
2023/03/07 11:04:51;;;;;;;1.15;0.30;;;14.30;54.30;;;;;;6214949;23;20062;-70
2023/03/07 11:07:34;;;;;;;0.68;0.50;;;14.30;54.40;;;;;;6224369;23;19993;-70
2023/03/07 11:10:26;;;;;;;0.47;0.32;;;14.40;54.60;;;;;;6214547;23;20005;-70
2023/03/07 11:12:55;;;;;;;0.82;0.63;;;14.30;54.40;;;;;;6224194;23;20440;-70
2023/03/07 11:15:23;;;;;;;0.93;0.47;;;14.30;54.50;;;;;;6214194;23;19992;-70
2023/03/07 11:17:50;;;;;;;1.08;0.30;;;14.30;54.50;;;;;;6224243;23;20297;-69
2023/03/07 11:20:47;;;;;;;1.52;0.40;;;14.30;54.50;;;;;;6214559;23;20019;-70
2023/03/07 11:23:22;;;;;;;0.45;0.30;;;14.30;54.40;;;;;;6209251;23;20004;-71
2023/03/07 11:25:49;;;;;;;0.35;0.30;;;14.30;54.40;;;;;;6224362;23;20059;-70
2023/03/07 11:28:32;;;;;;;1.23;0.68;;;14.30;54.30;;;;;;6214455;23;20420;-71
2023/03/07 11:31:02;;;;;;;0.30;0.30;;;14.30;54.30;;;;;;6214063;23;20066;-71
2023/03/07 11:33:45;;;;;;;0.50;0.20;;;14.30;54.30;;;;;;6214596;23;20088;-70
2023/03/07 11:36:15;;;;;;;0.77;0.40;;;14.30;54.20;;;;;;6224571;23;20061;-71
2023/03/07 11:38:41;;;;;;;0.40;0.35;;;14.40;54.20;;;;;;6214702;23;20020;-70
2023/03/07 11:41:19;;;;;;;0.40;0.30;;;14.40;54.20;;;;;;6224397;23;20328;-70
2023/03/07 11:44:09;;;;;;;0.30;0.22;;;14.40;54.10;;;;;;6212697;23;20000;-71
2023/03/07 11:47:01;;;;;;;1.10;0.50;;;14.40;54.10;;;;;;6212630;23;20451;-70
2023/03/07 11:49:29;;;;;;;1.00;0.30;;;14.40;54.00;;;;;;6212662;23;20043;-70
2023/03/07 11:52:37;;;;;;;0.52;0.50;;;14.40;54.30;;;;;;6213977;23;20001;-71
2023/03/07 11:55:03;;;;;;;0.52;0.30;;;;;;;;;;6194653;23;20008;-71
2023/03/07 11:57:58;;;;;;;0.52;0.20;;;14.40;53.70;;;;;;6213917;23;20080;-71
2023/03/07 12:00:56;;;;;;;0.20;0.20;;;14.50;54.30;;;;;;6214001;23;19997;-71
2023/03/07 12:03:40;;;;;;;0.93;0.43;;;14.50;54.20;;;;;;6182073;23;20043;-71
2023/03/07 12:06:34;;;;;;;0.82;0.30;;;14.50;54.30;;;;;;6215819;23;20008;-73
2023/03/07 12:09:28;;;;;;;0.60;0.38;;;14.40;54.20;;;;;;6226155;23;20004;-69
2023/03/07 12:12:06;;;;;;;0.70;0.43;;;14.50;54.30;;;;;;6216540;23;20028;-70
2023/03/07 12:14:47;;;;;;;0.50;0.45;;;14.50;54.30;;;;;;6216283;23;20084;-70
2023/03/07 12:17:22;;;;;;;5.50;0.50;;;14.50;54.30;;;;;;6215962;23;20000;-69
2023/03/07 12:20:17;;;;;;;2.72;0.43;;;14.50;54.30;;;;;;6226188;23;20024;-70
2023/03/07 12:23:07;;;;;;;0.38;0.22;;;14.50;54.30;;;;;;6226090;23;20072;-70
2023/03/07 12:25:38;;;;;;;0.40;0.28;;;14.50;54.30;;;;;;6226038;23;20328;-70
2023/03/07 12:28:42;;;;;;;1.25;0.30;;;14.50;54.30;;;;;;6226033;23;20003;-70
2023/03/07 12:31:26;;;;;;;1.75;0.40;;;14.50;54.30;;;;;;6216203;23;20001;-71
2023/03/07 12:34:08;;;;;;;1.23;0.60;;;14.50;54.20;;;;;;6215580;23;20012;-71
2023/03/07 12:36:49;;;;;;;0.90;0.40;;;14.50;54.20;;;;;;6225855;23;19997;-71
2023/03/07 12:39:30;;;;;;;0.32;0.30;;;14.50;54.30;;;;;;6225776;23;20004;-71
2023/03/07 12:42:17;;;;;;;1.42;0.38;;;14.50;54.30;;;;;;6215626;23;20000;-70
2023/03/07 12:44:49;;;;;;;0.70;0.32;;;14.60;54.30;;;;;;6216037;23;20023;-71
2023/03/07 12:47:49;;;;;;;0.88;0.38;;;14.50;54.30;;;;;;6215969;23;20422;-71
2023/03/07 12:50:33;;;;;;;0.60;0.30;;;14.50;54.20;;;;;;6186628;23;20011;-71
2023/03/07 12:53:02;;;;;;;0.77;0.40;;;14.50;54.20;;;;;;6225578;23;20559;-71
2023/03/07 12:55:38;;;;;;;1.23;0.37;;;14.60;54.20;;;;;;6215952;23;20047;-71
2023/03/07 12:58:24;;;;;;;0.88;0.30;;;14.50;54.30;;;;;;6215704;23;20242;-71
2023/03/07 13:01:01;;;;;;;2.65;0.35;;;14.50;54.20;;;;;;6214053;23;19997;-71